createdAt,value
2023-02-19T00:02:20.914Z,9.44
2023-02-19T00:05:24.541Z,9.41
2023-02-19T00:08:27.453Z,9.36
2023-02-19T00:11:33.192Z,9.45
2023-02-19T00:14:35.959Z,9.41
2023-02-19T00:17:38.818Z,9.36
2023-02-19T00:20:42.395Z,9.32
2023-02-19T00:23:52.534Z,9.33
2023-02-19T00:26:55.287Z,9.35
2023-02-19T00:29:58.709Z,9.36
2023-02-19T00:33:01.647Z,9.38
2023-02-19T00:36:06.165Z,9.35
2023-02-19T00:39:14.327Z,9.32
2023-02-19T00:42:17.204Z,9.34
2023-02-19T00:45:20.100Z,9.33
2023-02-19T00:48:23.469Z,9.29
2023-02-19T00:51:29.721Z,9.24
2023-02-19T00:54:32.800Z,9.22
2023-02-19T00:57:35.703Z,9.17
2023-02-19T01:00:38.924Z,9.17
2023-02-19T01:03:42.292Z,9.19
2023-02-19T01:06:45.212Z,9.16
2023-02-19T01:09:48.042Z,9.19
2023-02-19T01:12:51.002Z,9.15
2023-02-19T01:15:54.607Z,9.16
2023-02-19T01:18:58.418Z,9.15
2023-02-19T01:22:01.281Z,9.07
2023-02-19T01:25:06.418Z,9.00
2023-02-19T01:28:11.455Z,8.95
2023-02-19T01:31:18.527Z,8.88
2023-02-19T01:34:21.713Z,8.85
2023-02-19T01:37:24.600Z,8.82
2023-02-19T01:40:29.134Z,8.68
2023-02-19T01:43:33.204Z,8.61
2023-02-19T01:46:37.723Z,8.60
2023-02-19T01:50:01.866Z,8.62
2023-02-19T01:53:08.896Z,8.54
2023-02-19T01:56:13.710Z,8.51
2023-02-19T01:59:18.490Z,8.61
2023-02-19T02:02:22.884Z,8.58
2023-02-19T02:05:47.975Z,8.60
2023-02-19T02:09:15.790Z,8.60
2023-02-19T02:12:18.864Z,8.55
2023-02-19T02:15:24.579Z,8.61
2023-02-19T02:19:23.088Z,8.67
2023-02-19T02:22:43.002Z,8.63
2023-02-19T02:26:10.600Z,8.53
2023-02-19T02:29:25.434Z,8.49
2023-02-19T02:32:36.277Z,8.41
2023-02-19T02:35:56.949Z,8.38
2023-02-19T02:39:03.666Z,8.50
2023-02-19T02:42:30.208Z,8.48
2023-02-19T02:45:45.620Z,8.53
2023-02-19T02:48:58.841Z,8.50
2023-02-19T02:52:22.393Z,8.46
2023-02-19T02:55:29.033Z,8.52
2023-02-19T02:58:34.161Z,8.58
2023-02-19T03:02:08.913Z,8.56
2023-02-19T03:05:30.172Z,8.54
2023-02-19T03:08:39.292Z,8.48
2023-02-19T03:12:06.023Z,8.45
2023-02-19T03:15:33.368Z,8.39
2023-02-19T03:18:57.247Z,8.32
2023-02-19T03:22:17.299Z,8.29
2023-02-19T03:25:42.932Z,8.28
2023-02-19T03:29:10.048Z,8.30
2023-02-19T03:32:29.775Z,8.35
2023-02-19T03:35:37.110Z,8.37
2023-02-19T03:38:48.975Z,8.36
2023-02-19T03:42:10.589Z,8.47
2023-02-19T03:45:32.482Z,8.40
2023-02-19T03:48:53.151Z,8.45
2023-02-19T03:52:21.946Z,8.47
2023-02-19T03:55:51.606Z,8.61
2023-02-19T03:59:11.946Z,8.61
2023-02-19T04:02:33.982Z,8.62
2023-02-19T04:05:42.333Z,8.56
2023-02-19T04:08:50.294Z,8.44
2023-02-19T04:11:55.428Z,8.38
2023-02-19T04:15:04.493Z,8.31
2023-02-19T04:18:16.476Z,8.24
2023-02-19T04:21:21.872Z,8.18
2023-02-19T04:24:50.365Z,8.15
2023-02-19T04:27:53.270Z,8.07
2023-02-19T04:30:56.199Z,8.06
2023-02-19T04:33:59.015Z,8.08
2023-02-19T04:37:01.913Z,8.00
2023-02-19T04:40:05.211Z,8.04
2023-02-19T04:43:08.190Z,8.05
2023-02-19T04:46:10.936Z,8.05
2023-02-19T04:49:13.784Z,8.03
2023-02-19T04:52:16.890Z,8.00
2023-02-19T04:55:19.792Z,7.92
2023-02-19T04:58:22.825Z,7.90
2023-02-19T05:01:26.342Z,7.81
2023-02-19T05:04:29.335Z,7.81
2023-02-19T05:07:32.299Z,7.81
2023-02-19T05:10:36.525Z,7.81
2023-02-19T05:13:40.560Z,7.78
2023-02-19T05:16:43.409Z,7.81
2023-02-19T05:19:46.452Z,7.78
2023-02-19T05:22:49.604Z,7.79
2023-02-19T05:25:52.711Z,7.98
2023-02-19T05:28:55.483Z,8.04
2023-02-19T05:31:58.637Z,7.96
2023-02-19T05:35:01.540Z,7.92
2023-02-19T05:38:06.134Z,7.97
2023-02-19T05:41:17.381Z,8.01
2023-02-19T05:44:20.361Z,8.08
2023-02-19T05:47:23.204Z,8.18
2023-02-19T05:50:26.789Z,8.19
2023-02-19T05:53:29.646Z,8.18
2023-02-19T05:56:42.934Z,8.28
2023-02-19T05:59:45.742Z,8.35
2023-02-19T06:02:49.119Z,8.47
2023-02-19T06:05:52.105Z,8.64
2023-02-19T06:08:55.472Z,8.74
2023-02-19T06:11:58.385Z,8.82
2023-02-19T06:15:01.247Z,8.92
2023-02-19T06:18:04.376Z,9.02
2023-02-19T06:21:10.408Z,9.16
2023-02-19T06:24:13.626Z,9.31
2023-02-19T06:27:16.783Z,9.41
2023-02-19T06:30:19.885Z,9.49
2023-02-19T06:33:22.707Z,9.56
2023-02-19T06:36:25.825Z,9.66
2023-02-19T06:39:28.641Z,9.70
2023-02-19T06:42:34.518Z,9.71
2023-02-19T06:45:37.340Z,9.65
2023-02-19T06:48:41.731Z,9.61
2023-02-19T06:51:44.642Z,9.63
2023-02-19T06:54:47.609Z,9.51
2023-02-19T06:57:50.476Z,9.65
2023-02-19T07:00:54.029Z,9.67
2023-02-19T07:03:57.089Z,9.94
2023-02-19T07:07:00.549Z,10.03
2023-02-19T07:10:04.725Z,10.20
2023-02-19T07:13:08.419Z,10.19
2023-02-19T07:16:12.450Z,10.34
2023-02-19T07:19:16.067Z,10.42
2023-02-19T07:22:18.945Z,10.60
2023-02-19T07:25:21.980Z,10.58
2023-02-19T07:28:25.026Z,10.74
2023-02-19T07:31:28.929Z,10.98
2023-02-19T07:34:32.077Z,11.13
2023-02-19T07:37:35.047Z,11.14
2023-02-19T07:40:38.616Z,11.22
2023-02-19T07:43:41.536Z,11.29
2023-02-19T07:46:44.658Z,11.50
2023-02-19T07:49:47.714Z,11.73
2023-02-19T07:52:50.444Z,12.09
2023-02-19T07:55:53.839Z,12.10
2023-02-19T07:58:56.732Z,11.95
2023-02-19T08:02:18.459Z,11.94
2023-02-19T08:05:21.313Z,11.90
2023-02-19T08:08:24.349Z,12.27
2023-02-19T08:11:45.894Z,13.45
2023-02-19T08:14:48.838Z,13.81
2023-02-19T08:17:52.172Z,13.63
2023-02-19T08:20:56.051Z,13.87
2023-02-19T08:23:58.953Z,14.10
2023-02-19T08:27:01.822Z,13.74
2023-02-19T08:30:05.595Z,13.75
2023-02-19T08:33:10.761Z,13.83
2023-02-19T08:36:13.679Z,13.93
2023-02-19T08:39:16.862Z,13.60
2023-02-19T08:42:20.425Z,13.31
2023-02-19T08:45:24.537Z,13.24
2023-02-19T08:48:27.897Z,13.18
2023-02-19T08:51:30.712Z,13.49
2023-02-19T08:54:33.569Z,13.59
2023-02-19T08:57:37.809Z,13.75
2023-02-19T09:00:41.268Z,13.58
2023-02-19T09:03:44.464Z,13.56
2023-02-19T09:06:47.356Z,13.30
2023-02-19T09:09:50.665Z,13.17
2023-02-19T09:12:53.495Z,12.96
2023-02-19T09:15:57.384Z,12.50
2023-02-19T09:19:00.442Z,12.43
2023-02-19T09:22:04.692Z,12.35
2023-02-19T09:25:07.776Z,12.35
2023-02-19T09:28:10.501Z,12.21
2023-02-19T09:31:16.060Z,12.24
2023-02-19T09:34:19.189Z,12.39
2023-02-19T09:37:25.952Z,12.34
2023-02-19T09:40:30.502Z,12.34
2023-02-19T09:43:34.005Z,12.58
2023-02-19T09:46:52.011Z,12.61
2023-02-19T09:50:01.155Z,12.58
2023-02-19T09:53:12.968Z,12.63
2023-02-19T09:56:16.358Z,12.71
2023-02-19T09:59:31.949Z,12.72
2023-02-19T10:02:34.853Z,12.70
2023-02-19T10:05:40.047Z,12.29
2023-02-19T10:08:46.123Z,12.47
2023-02-19T10:11:49.969Z,12.08
2023-02-19T10:15:00.225Z,12.01
2023-02-19T10:18:05.245Z,12.13
2023-02-19T10:21:19.855Z,12.22
2023-02-19T10:24:29.861Z,12.29
2023-02-19T10:27:33.399Z,12.18
2023-02-19T10:30:37.545Z,12.07
2023-02-19T10:33:58.404Z,12.14
2023-02-19T10:37:01.387Z,12.08
2023-02-19T10:40:04.702Z,12.03
2023-02-19T10:43:22.583Z,12.03
2023-02-19T10:46:32.184Z,12.04
2023-02-19T10:49:40.866Z,12.19
2023-02-19T10:52:44.054Z,12.17
2023-02-19T10:55:46.981Z,12.05
2023-02-19T10:58:50.234Z,12.14
2023-02-19T11:02:01.866Z,12.37
2023-02-19T11:05:19.979Z,12.50
2023-02-19T11:08:24.099Z,12.53
2023-02-19T11:11:35.547Z,12.66
2023-02-19T11:14:43.566Z,12.97
2023-02-19T11:17:55.371Z,13.18
2023-02-19T11:21:01.170Z,13.28
2023-02-19T11:24:04.485Z,13.59
2023-02-19T11:27:19.513Z,13.62
2023-02-19T11:30:33.863Z,13.59
2023-02-19T11:33:45.091Z,13.65
2023-02-19T11:37:11.792Z,13.58
2023-02-19T11:40:14.614Z,13.67
2023-02-19T11:43:39.578Z,13.81
2023-02-19T11:46:57.088Z,13.75
2023-02-19T11:50:14.845Z,13.67
2023-02-19T11:53:28.065Z,13.97
2023-02-19T11:56:36.704Z,14.26
2023-02-19T11:59:53.846Z,14.95
2023-02-19T12:03:34.692Z,15.80
2023-02-19T12:06:49.372Z,15.64
2023-02-19T12:09:59.552Z,15.29
2023-02-19T12:13:14.351Z,15.32
2023-02-19T12:16:30.161Z,15.35
2023-02-19T12:19:55.010Z,15.67
2023-02-19T12:23:35.055Z,15.02
2023-02-19T12:27:08.689Z,15.13
2023-02-19T12:30:29.797Z,17.10
2023-02-19T12:33:53.900Z,19.38
2023-02-19T12:37:23.779Z,17.72
2023-02-19T12:40:57.887Z,16.66
2023-02-19T12:44:37.861Z,16.05
2023-02-19T12:47:43.790Z,15.48
2023-02-19T12:50:50.899Z,15.22
2023-02-19T12:54:12.601Z,15.39
2023-02-19T12:57:29.316Z,15.53
2023-02-19T13:00:45.541Z,16.43
2023-02-19T13:03:54.776Z,16.61
2023-02-19T13:07:17.660Z,17.06
2023-02-19T13:11:00.194Z,17.36
2023-02-19T13:14:13.677Z,18.88
2023-02-19T13:17:26.938Z,18.28
2023-02-19T13:20:38.115Z,17.60
2023-02-19T13:23:59.545Z,17.38
2023-02-19T13:27:44.283Z,16.96
2023-02-19T13:31:22.193Z,18.11
2023-02-19T13:34:48.073Z,22.46
2023-02-19T13:37:54.320Z,22.95
2023-02-19T13:41:00.244Z,23.31
2023-02-19T13:44:06.863Z,21.81
2023-02-19T13:47:49.678Z,21.66
2023-02-19T13:51:26.865Z,21.41
2023-02-19T13:54:40.476Z,23.50
2023-02-19T13:57:45.043Z,22.51
2023-02-19T14:00:55.112Z,23.13
2023-02-19T14:04:18.514Z,22.33
2023-02-19T14:07:27.367Z,21.63
2023-02-19T14:10:58.431Z,19.09
2023-02-19T14:14:06.701Z,18.51
2023-02-19T14:17:10.126Z,19.10
2023-02-19T14:20:17.143Z,20.87
2023-02-19T14:23:24.356Z,19.37
2023-02-19T14:26:30.974Z,20.25
2023-02-19T14:29:34.311Z,20.54
2023-02-19T14:32:42.221Z,20.00
2023-02-19T14:35:49.564Z,18.45
2023-02-19T14:38:58.552Z,16.44
2023-02-19T14:42:09.821Z,16.15
2023-02-19T14:45:16.224Z,16.48
2023-02-19T14:48:24.723Z,18.03
2023-02-19T14:51:33.712Z,18.81
2023-02-19T14:54:43.355Z,18.72
2023-02-19T14:57:49.878Z,18.20
2023-02-19T15:00:53.077Z,16.48
2023-02-19T15:03:56.719Z,15.82
2023-02-19T15:07:02.736Z,15.43
2023-02-19T15:10:11.434Z,15.14
2023-02-19T15:13:23.423Z,15.11
2023-02-19T15:16:28.427Z,14.91
2023-02-19T15:19:39.733Z,14.79
2023-02-19T15:22:46.326Z,14.52
2023-02-19T15:25:49.762Z,14.52
2023-02-19T15:29:20.208Z,14.37
2023-02-19T15:32:27.168Z,14.24
2023-02-19T15:35:32.756Z,14.15
2023-02-19T15:38:36.521Z,13.99
2023-02-19T15:41:39.650Z,13.87
2023-02-19T15:44:47.626Z,13.78
2023-02-19T15:47:59.552Z,13.71
2023-02-19T15:51:09.935Z,13.56
2023-02-19T15:54:38.610Z,13.50
2023-02-19T15:57:46.712Z,13.33
2023-02-19T16:00:57.495Z,13.27
2023-02-19T16:04:01.014Z,13.16
2023-02-19T16:07:04.153Z,13.09
2023-02-19T16:10:19.336Z,13.01
2023-02-19T16:13:31.836Z,12.92
2023-02-19T16:16:41.125Z,12.79
2023-02-19T16:19:57.580Z,12.62
2023-02-19T16:23:10.617Z,12.61
2023-02-19T16:26:14.135Z,12.51
2023-02-19T16:29:22.780Z,12.43
2023-02-19T16:32:26.158Z,12.27
2023-02-19T16:35:40.126Z,12.13
2023-02-19T16:39:08.310Z,11.93
2023-02-19T16:42:13.670Z,11.75
2023-02-19T16:45:18.192Z,11.66
2023-02-19T16:48:23.139Z,11.51
2023-02-19T16:51:27.549Z,11.48
2023-02-19T16:54:30.815Z,11.33
2023-02-19T16:57:33.874Z,11.32
2023-02-19T17:00:37.167Z,11.30
2023-02-19T17:03:40.498Z,11.23
2023-02-19T17:06:44.634Z,11.12
2023-02-19T17:09:47.637Z,11.14
2023-02-19T17:12:52.018Z,11.00
2023-02-19T17:15:55.648Z,11.03
2023-02-19T17:18:59.067Z,10.91
2023-02-19T17:22:02.077Z,10.91
2023-02-19T17:25:05.595Z,10.81
2023-02-19T17:28:08.597Z,10.66
2023-02-19T17:31:13.964Z,10.53
2023-02-19T17:34:17.174Z,10.55
2023-02-19T17:37:20.150Z,10.51
2023-02-19T17:40:33.082Z,10.44
2023-02-19T17:43:36.717Z,10.48
2023-02-19T17:46:41.189Z,10.59
2023-02-19T17:49:44.290Z,10.66
2023-02-19T17:52:47.451Z,10.75
2023-02-19T17:55:51.069Z,10.79
2023-02-19T17:58:55.975Z,10.78
2023-02-19T18:01:59.171Z,10.76
2023-02-19T18:05:02.034Z,10.72
2023-02-19T18:08:04.928Z,10.74
2023-02-19T18:11:08.324Z,10.79
2023-02-19T18:14:11.541Z,10.82
2023-02-19T18:17:15.245Z,10.73
2023-02-19T18:20:22.333Z,10.69
2023-02-19T18:23:25.562Z,10.56
2023-02-19T18:26:28.782Z,10.58
2023-02-19T18:29:35.043Z,10.65
2023-02-19T18:32:39.174Z,10.65
2023-02-19T18:35:42.367Z,10.72
2023-02-19T18:38:46.370Z,10.63
2023-02-19T18:41:51.916Z,10.36
2023-02-19T18:44:56.226Z,10.05
2023-02-19T18:47:59.300Z,9.90
2023-02-19T18:51:02.572Z,9.74
2023-02-19T18:54:07.937Z,9.61
2023-02-19T18:57:11.058Z,9.43
2023-02-19T19:00:26.516Z,9.26
2023-02-19T19:03:31.679Z,9.04
2023-02-19T19:06:37.733Z,8.76
2023-02-19T19:09:40.969Z,8.52
2023-02-19T19:12:44.951Z,8.33
2023-02-19T19:15:51.464Z,8.18
2023-02-19T19:18:55.530Z,8.10
2023-02-19T19:21:58.838Z,7.97
2023-02-19T19:25:02.052Z,7.88
2023-02-19T19:28:05.427Z,7.83
2023-02-19T19:31:08.377Z,7.83
2023-02-19T19:34:12.742Z,7.86
2023-02-19T19:37:16.954Z,7.89
2023-02-19T19:40:20.337Z,8.15
2023-02-19T19:43:27.447Z,8.24
2023-02-19T19:46:30.879Z,8.11
2023-02-19T19:49:34.153Z,8.04
2023-02-19T19:52:37.469Z,8.10
2023-02-19T19:55:41.249Z,8.09
2023-02-19T19:58:44.685Z,8.17
2023-02-19T20:01:52.668Z,8.35
2023-02-19T20:04:55.593Z,8.66
2023-02-19T20:07:58.785Z,8.89
2023-02-19T20:11:03.114Z,9.00
2023-02-19T20:14:06.330Z,9.02
2023-02-19T20:17:09.764Z,9.02
2023-02-19T20:20:13.938Z,8.92
2023-02-19T20:23:17.129Z,8.83
2023-02-19T20:26:28.175Z,8.74
2023-02-19T20:29:34.526Z,8.80
2023-02-19T20:32:39.756Z,8.72
2023-02-19T20:35:42.983Z,8.85
2023-02-19T20:38:46.911Z,8.94
2023-02-19T20:41:51.884Z,8.92
2023-02-19T20:44:56.565Z,8.85
2023-02-19T20:47:59.884Z,8.78
2023-02-19T20:51:03.237Z,8.70
2023-02-19T20:54:06.327Z,8.63
2023-02-19T20:57:10.301Z,8.48
2023-02-19T21:00:15.690Z,8.25
2023-02-19T21:03:18.832Z,8.10
2023-02-19T21:06:22.786Z,8.19
2023-02-19T21:09:25.657Z,8.00
2023-02-19T21:12:28.927Z,7.96
2023-02-19T21:15:34.480Z,7.89
2023-02-19T21:18:37.547Z,7.78
2023-02-19T21:21:40.784Z,7.73
2023-02-19T21:24:43.733Z,7.75
2023-02-19T21:27:46.703Z,7.70
2023-02-19T21:30:49.825Z,7.77
2023-02-19T21:33:52.762Z,7.80
2023-02-19T21:36:56.591Z,7.88
2023-02-19T21:40:00.616Z,8.01
2023-02-19T21:43:04.668Z,7.99
2023-02-19T21:46:07.574Z,8.15
2023-02-19T21:49:11.728Z,8.19
2023-02-19T21:52:14.803Z,8.22
2023-02-19T21:55:17.716Z,8.37
2023-02-19T21:58:20.856Z,8.28
2023-02-19T22:01:30.277Z,8.22
2023-02-19T22:04:33.112Z,8.25
2023-02-19T22:07:35.968Z,8.28
2023-02-19T22:10:42.676Z,8.39
2023-02-19T22:13:45.563Z,8.47
2023-02-19T22:16:48.545Z,8.47
2023-02-19T22:19:51.467Z,8.50
2023-02-19T22:22:54.354Z,8.52
2023-02-19T22:25:57.248Z,8.54
2023-02-19T22:29:01.559Z,8.48
2023-02-19T22:32:04.744Z,8.28
2023-02-19T22:35:07.893Z,8.28
2023-02-19T22:38:10.794Z,8.26
2023-02-19T22:41:14.642Z,8.14
2023-02-19T22:44:17.932Z,8.15
2023-02-19T22:47:20.870Z,8.05
2023-02-19T22:50:23.965Z,8.03
2023-02-19T22:53:26.909Z,8.04
2023-02-19T22:56:30.342Z,7.97
2023-02-19T22:59:33.217Z,7.86
2023-02-19T23:02:36.552Z,7.72
2023-02-19T23:05:39.934Z,7.64
2023-02-19T23:08:44.229Z,7.60
2023-02-19T23:11:47.825Z,7.42
2023-02-19T23:14:50.640Z,7.30
2023-02-19T23:17:53.483Z,7.23
2023-02-19T23:20:56.379Z,7.27
2023-02-19T23:23:59.704Z,7.30
2023-02-19T23:27:02.589Z,7.42
2023-02-19T23:30:06.266Z,7.42
2023-02-19T23:33:09.125Z,7.55
2023-02-19T23:36:14.072Z,7.51
2023-02-19T23:39:20.562Z,7.64
2023-02-19T23:42:23.433Z,7.71
2023-02-19T23:45:26.285Z,7.67
2023-02-19T23:48:29.014Z,7.70
2023-02-19T23:51:31.873Z,7.80
2023-02-19T23:54:35.087Z,7.72
2023-02-19T23:57:37.970Z,7.56
